TimeCDT,TemperatureF,Dew PointF,Humidity,Sea Level PressureIn,VisibilityMPH,Wind Direction,Wind SpeedMPH,Gust SpeedMPH,PrecipitationIn,Events,Conditions,WindDirDegrees,DateUTC
12:15 AM,72.7,57.0,58,30.27,10.0,SE,5.8,-,N/A,,Clear,140,2013-08-26 05:15:00
12:35 AM,73.9,57.7,57,30.27,10.0,SSE,12.7,16.1,N/A,,Clear,150,2013-08-26 05:35:00
12:55 AM,75.2,58.5,56,30.27,10.0,SSE,12.7,18.4,N/A,,Clear,160,2013-08-26 05:55:00
1:15 AM,74.3,58.5,58,30.27,10.0,SSE,11.5,-,N/A,,Clear,160,2013-08-26 06:15:00
1:35 AM,73.8,58.8,59,30.27,10.0,SSE,9.2,-,N/A,,Clear,160,2013-08-26 06:35:00
1:55 AM,73.4,59.0,61,30.27,10.0,SSE,9.2,-,N/A,,Clear,160,2013-08-26 06:55:00
2:15 AM,72.9,59.0,62,30.27,10.0,South,9.2,-,N/A,,Clear,170,2013-08-26 07:15:00
2:35 AM,71.6,59.2,65,30.27,10.0,South,6.9,-,N/A,,Clear,170,2013-08-26 07:35:00
2:55 AM,70.5,59.2,67,30.27,10.0,South,5.8,-,N/A,,Clear,170,2013-08-26 07:55:00
3:15 AM,69.8,59.0,68,30.27,10.0,South,5.8,-,N/A,,Clear,170,2013-08-26 08:15:00
3:35 AM,68.9,59.0,71,30.27,10.0,South,4.6,-,N/A,,Clear,170,2013-08-26 08:35:00
3:55 AM,68.0,59.0,73,30.27,10.0,SSE,6.9,-,N/A,,Clear,160,2013-08-26 08:55:00
4:15 AM,67.8,59.0,73,30.26,10.0,South,5.8,-,N/A,,Clear,170,2013-08-26 09:15:00
4:35 AM,67.1,58.6,74,30.27,10.0,South,5.8,-,N/A,,Clear,170,2013-08-26 09:35:00
4:55 AM,66.7,58.5,75,30.26,10.0,SSE,5.8,-,N/A,,Clear,160,2013-08-26 09:55:00
5:15 AM,66.4,58.5,76,30.26,10.0,South,6.9,-,N/A,,Clear,180,2013-08-26 10:15:00
5:35 AM,66.7,58.6,75,30.26,10.0,South,5.8,-,N/A,,Clear,190,2013-08-26 10:35:00
5:55 AM,66.7,58.6,75,30.27,10.0,South,6.9,-,N/A,,Clear,180,2013-08-26 10:55:00
6:15 AM,66.4,58.5,76,30.27,10.0,South,5.8,-,N/A,,Clear,180,2013-08-26 11:15:00
6:35 AM,65.7,58.3,77,30.27,10.0,South,5.8,-,N/A,,Clear,170,2013-08-26 11:35:00
6:55 AM,65.5,58.1,77,30.27,10.0,South,5.8,-,N/A,,Clear,190,2013-08-26 11:55:00
7:15 AM,64.9,58.1,78,30.28,10.0,South,5.8,-,N/A,,Clear,180,2013-08-26 12:15:00
7:35 AM,64.4,57.9,79,30.28,10.0,South,6.9,-,N/A,,Clear,180,2013-08-26 12:35:00
7:55 AM,65.5,58.1,77,30.28,10.0,South,6.9,-,N/A,,Clear,180,2013-08-26 12:55:00
8:15 AM,67.8,58.3,71,30.29,10.0,South,6.9,-,N/A,,Clear,180,2013-08-26 13:15:00
8:35 AM,70.3,58.5,66,30.29,10.0,South,6.9,-,N/A,,Clear,180,2013-08-26 13:35:00
8:55 AM,73.2,59.0,61,30.29,10.0,SSW,10.4,-,N/A,,Clear,200,2013-08-26 13:55:00
9:15 AM,75.2,59.4,58,30.29,10.0,South,13.8,-,N/A,,Clear,190,2013-08-26 14:15:00
9:35 AM,77.4,59.7,54,30.29,10.0,SSW,12.7,-,N/A,,Clear,210,2013-08-26 14:35:00
9:55 AM,78.3,59.5,52,30.30,10.0,SSW,13.8,-,N/A,,Clear,210,2013-08-26 14:55:00
10:15 AM,80.2,59.7,49,30.29,10.0,SW,13.8,-,N/A,,Clear,220,2013-08-26 15:15:00
10:35 AM,80.8,59.2,48,30.30,10.0,South,11.5,-,N/A,,Clear,190,2013-08-26 15:35:00
10:55 AM,82.4,59.0,45,30.29,10.0,SW,10.4,-,N/A,,Clear,220,2013-08-26 15:55:00
11:15 AM,83.3,58.3,42,30.29,10.0,South,10.4,-,N/A,,Clear,180,2013-08-26 16:15:00
11:35 AM,84.0,58.1,41,30.30,10.0,South,10.4,-,N/A,,Clear,190,2013-08-26 16:35:00
11:55 AM,84.9,57.9,40,30.29,10.0,South,12.7,-,N/A,,Clear,190,2013-08-26 16:55:00
12:15 PM,85.8,58.3,39,30.29,10.0,South,11.5,20.7,N/A,,Scattered Clouds,180,2013-08-26 17:15:00
12:35 PM,86.4,57.7,38,30.28,10.0,SSE,13.8,18.4,N/A,,Clear,160,2013-08-26 17:35:00
12:55 PM,87.1,57.2,36,30.28,10.0,SSE,6.9,16.1,N/A,,Scattered Clouds,150,2013-08-26 17:55:00
1:15 PM,86.4,57.0,37,30.27,10.0,South,12.7,21.9,N/A,,Scattered Clouds,180,2013-08-26 18:15:00
1:35 PM,88.3,56.3,34,30.26,10.0,SSE,9.2,19.6,N/A,,Scattered Clouds,150,2013-08-26 18:35:00
1:55 PM,89.2,55.9,32,30.25,10.0,South,11.5,-,N/A,,Scattered Clouds,180,2013-08-26 18:55:00
2:15 PM,86.2,56.1,36,30.25,10.0,South,10.4,18.4,N/A,,Mostly Cloudy,180,2013-08-26 19:15:00
2:35 PM,87.3,54.3,32,30.24,10.0,SE,15.0,19.6,N/A,,Scattered Clouds,130,2013-08-26 19:35:00
2:55 PM,90.1,53.4,29,30.24,10.0,SE,9.2,20.7,N/A,,Scattered Clouds,130,2013-08-26 19:55:00
3:15 PM,87.4,53.1,31,30.23,10.0,SE,16.1,-,N/A,,Scattered Clouds,140,2013-08-26 20:15:00
3:35 PM,91.0,52.5,27,30.22,10.0,SSE,11.5,21.9,N/A,,Mostly Cloudy,160,2013-08-26 20:35:00
3:55 PM,90.5,53.2,28,30.22,10.0,SSE,12.7,19.6,N/A,,Mostly Cloudy,160,2013-08-26 20:55:00
4:15 PM,87.4,52.7,30,30.21,10.0,SSE,13.8,19.6,N/A,,Scattered Clouds,150,2013-08-26 21:15:00
4:35 PM,90.0,50.9,26,30.20,10.0,South,10.4,21.9,N/A,,Scattered Clouds,180,2013-08-26 21:35:00
4:55 PM,91.2,52.0,26,30.20,10.0,SSW,15.0,21.9,N/A,,Mostly Cloudy,200,2013-08-26 21:55:00
5:15 PM,90.0,51.4,27,30.20,10.0,SSE,17.3,-,N/A,,Scattered Clouds,160,2013-08-26 22:15:00
5:35 PM,88.3,51.1,28,30.20,10.0,South,13.8,23.0,N/A,,Clear,170,2013-08-26 22:35:00
5:55 PM,88.9,50.7,27,30.20,10.0,SSE,16.1,19.6,N/A,,Scattered Clouds,150,2013-08-26 22:55:00
6:15 PM,89.1,50.5,27,30.20,10.0,SSE,11.5,17.3,N/A,,Scattered Clouds,150,2013-08-26 23:15:00
6:35 PM,87.8,49.8,27,30.19,10.0,SSE,13.8,19.6,N/A,,Scattered Clouds,160,2013-08-26 23:35:00
6:55 PM,87.4,50.0,27,30.19,10.0,SSE,11.5,-,N/A,,Clear,150,2013-08-26 23:55:00
7:15 PM,86.7,49.5,28,30.19,10.0,South,13.8,18.4,N/A,,Clear,170,2013-08-27 00:15:00
7:35 PM,85.5,49.8,29,30.18,10.0,SSE,11.5,-,N/A,,Clear,160,2013-08-27 00:35:00
7:55 PM,84.2,50.4,31,30.18,10.0,South,11.5,-,N/A,,Clear,170,2013-08-27 00:55:00
8:15 PM,82.4,52.5,35,30.18,10.0,SSE,11.5,-,N/A,,Clear,150,2013-08-27 01:15:00
8:35 PM,80.8,52.9,38,30.18,10.0,SSE,11.5,-,N/A,,Clear,160,2013-08-27 01:35:00
8:55 PM,79.9,54.3,41,30.19,10.0,SSE,9.2,-,N/A,,Clear,160,2013-08-27 01:55:00
9:15 PM,77.0,54.7,46,30.19,10.0,South,5.8,-,N/A,,Clear,170,2013-08-27 02:15:00
9:35 PM,76.3,55.4,48,30.19,10.0,South,6.9,-,N/A,,Clear,170,2013-08-27 02:35:00
9:55 PM,75.2,55.8,51,30.19,10.0,South,4.6,-,N/A,,Clear,180,2013-08-27 02:55:00
10:15 PM,73.4,56.3,55,30.20,10.0,SSE,5.8,-,N/A,,Clear,160,2013-08-27 03:15:00
10:35 PM,72.5,56.3,57,30.20,10.0,South,3.5,-,N/A,,Clear,180,2013-08-27 03:35:00
10:55 PM,72.0,56.3,58,30.21,10.0,South,4.6,-,N/A,,Clear,170,2013-08-27 03:55:00
11:15 PM,72.0,56.1,57,30.21,10.0,SSE,8.1,-,N/A,,Clear,160,2013-08-27 04:15:00
11:35 PM,73.4,55.9,54,30.21,10.0,SSE,8.1,-,N/A,,Clear,160,2013-08-27 04:35:00
11:55 PM,72.9,56.1,56,30.21,10.0,SSE,9.2,-,N/A,,Clear,160,2013-08-27 04:55:00